toledoroadrunners.png

 

Pemberville 5 Miler - 08/20/2010
Place Sex/Tot Time Pace Name Age Sex City Time
1 1/264 24:22:00 4:53 JULIUS KIPTOO 32 M TOLEDO 24:22:00
2 2/264 24:48:00 4:58 MATTHEW FOLK 34 M PERRYSBURG 24:48:00
3 3/264 26:25:00 5:17 JUSTIN DICKMAN 23 M VAN WERT 26:25:00
4 4/264 28:00:00 5:36 KEN RICHENDOLLAR 35 M MAUMEE 28:00:00
5 5/264 28:22:00 5:41 STEVE BAUGH 42 M SYLVANIA 28:22:00
6 6/264 28:36:00 5:44 BRAD MILLER 28 M TOLEDO 28:36:00
7 7/264 29:03:00 5:49 PHILIP RADER 31 M FINDLAY 29:03:00
8 8/264 29:07:00 5:50 DEVIN BUTCHER 22 M BOWLING GREEN 29:07:00
9 9/264 29:12:00 5:51 BRYANT BYRD 16 M PERRYSBURG 29:12:00
10 10/264 29:17:00 5:52 CONNOR BUCHHOLZ 17 M WATERVILLE 29:17:00
11 11/264 29:19:00 5:52 JOHN GILBERT 34 M FREMONT 29:19:00
12 12/264 29:52:00 5:59 DON LECK 52 M MAUMEE 29:52:00
13 13/264 30:17:00 6:04 ANDREW WATKINS 17 M TOLEDO 30:17:00
14 14/264 30:21:00 6:05 BRENT BUCHOLZ 19 M WATERVILLE 30:21:00
15 15/264 31:00:00 6:12 MICHAEL DAVISSON 17 M PERRYSBURG 31:00:00
16 16/264 31:01:00 6:13 NATHAN ADKINS 16 M WALBRIDGE 31:01:00
17 17/264 31:20:00 6:16 JASON MAGERS 25 M TOLEDO 31:20:00
18 18/264 31:26:00 6:18 JON MONHEIM 41 M PERRYSBURG 31:26:00
19 1/247 31:29:00 6:18 RACHEL WHITE 21 F COLUMBUS 31:29:00
20 19/264 31:37:00 6:20 ANDREW BAYES 14 M PERRYSBURG 31:37:00
21 20/264 31:41:00 6:21 ROBERT MCCARTHY 16 M TOLEDO 31:41:00
22 21/264 31:54:00 6:23 CHRISTOPHER ROTH 18 M TOLEDO 31:54:00
23 22/264 32:01:00 6:25 TROY MAURER 15 M PERRYSBURG 32:01:00
24 23/264 32:06:00 6:26 TJ TUTTAMORE 31 M PEMBERVILLE 32:06:00
25 24/264 32:15:00 6:27 PAUL RELLSTAB 23 M HOLGATE 32:15:00
26 25/264 32:18:00 6:28 NATHAN WHITMAN 36 M FOSTORIA 32:18:00
27 26/264 32:20:00 6:28 KEVIN EGAN 34 M TOLEDO 32:20:00
28 27/264 32:23:00 6:29 ANDREW WICKISER 50 M BOWLING GREEN 32:23:00
29 28/264 32:29:00 6:30 STEVE ZARICH 25 M PEMBERVILLE 32:29:00
30 29/264 32:31:00 6:31 BRIAN KOEHLER 20 M PERRYSBURG 32:31:00
31 30/264 32:32:00 6:31 ERIC LUTTON 25 M DELTA 32:32:00
32 31/264 32:36:00 6:32 JASON MANG 23 M PERRYSBURG 32:36:00
33 32/264 32:42:00 6:33 TODD BIERLEY 44 M BRADNER 32:42:00
34 33/264 32:55:00 6:35 JASON DITTUS 36 M WHITEHOUSE 32:55:00
35 34/264 33:06:00 6:38 CHARLES GIBBONS 15 M TOLEDO 33:06:00
36 35/264 33:08:00 6:38 ANDY KLEIN 17 M TOLEDO 33:08:00
37 36/264 33:15:00 6:39 NICK TWINING 17 M BOWLING GREEN 33:15:00
38 37/264 33:19:00 6:40 DUSTIN HERRICK 17 M LUCKEY 33:19:00
39 38/264 33:23:00 6:41 NICK ROSSLER 15 M PERRYSBURG 33:23:00
40 39/264 33:27:00 6:42 JAY UTENDORF 50 M WOODVILLE 33:27:00
41 40/264 33:29:00 6:42 ALUM ADAMS 17 M PERRYSBURGH 33:29:00
42 2/247 33:33:00 6:43 KAITLYN LLEWELLYN 16 F PERRYSBURG 33:33:00
43 41/264 33:35:00 6:43 BRENDON MATTHEWS 30 M BLUFFTON 33:35:00
44 42/264 33:35:00 6:43 BEN WAGGONER 47 M MAUMEE 33:35:00
45 43/264 33:39:00 6:44 RICH OLDRIEVC 51 M BOWLING GREEN 33:39:00
46 44/264 33:42:00 6:45 MATT SULLIVAN 16 M PERRYSBURG 33:42:00
47 45/264 33:44:00 6:45 ADAM MILLER 27 M KANSAS 33:44:00
48 46/264 33:51:00 6:47 JOEL DAVENPORT 40 M PERRYSBURG 33:51:00
49 47/264 34:07:00 6:50 JOEL WEIGMAN 32 M COLUMBUS 34:07:00
50 3/247 34:09:00 6:50 JACKIE BAUMGARTNER 27 F OAK HARBOR 34:09:00
51 48/264 34:09:00 6:50 MICHAEL BRATTON 18 M BOWLING GREEN 34:09:00
52 49/264 34:11:00 6:51 TODD SCHILLER 48 M OAK HARBOR 34:11:00
53 50/264 34:22:00 6:53 GABE FREDERICKS 14 M PEMBERVILLE 34:22:00
54 51/264 34:24:00 6:53 KEITH RIFFNER 20 M BOWLING GREEN 34:24:00
55 52/264 34:26:00 6:54 KALEB PEREZ 15 M WOODVILLE 34:26:00
56 53/264 34:31:00 6:55 DAVID ST JOHN 14 M PERRYSBURG 34:31:00
57 4/247 34:31:00 6:55 LACY NAGY 17 F GIBSONBURG 34:31:00
58 54/264 34:34:00 6:55 JAMES BOCKEY 36 M TEMPERANCE 34:34:00
59 55/264 34:43:00 6:57 BLAKE WASUNG 16 M SYLVANIA 34:43:00
60 5/247 34:48:00 6:58 TAYLOR MONHEIM 14 F PERRYSBURG 34:48:00
61 6/247 34:48:00 6:58 ANDREA ALT 17 F PERRYSBURG 34:48:00
62 7/247 35:02:00 7:01 KAREN KILLIAN 25 F BRYAN 35:02:00
63 56/264 35:15:00 7:03 JOHNNY SHUMAY 16 M PERRYSBURG 35:15:00
64 57/264 35:15:00 7:03 JORDAN ROSENBERGER 17 M GIBSONBURG 35:15:00
65 58/264 35:21:00 7:05 MATTHEW FLEGLE 40 M COLUMBUS 35:21:00
66 8/247 35:25:00 7:05 BECKY MINCHEFF 47 F OREGON 35:25:00
67 59/264 35:37:00 7:08 BOB FITTRO 47 M TIFFIN 35:37:00
68 60/264 35:50:00 7:10 JOHN KOLESAR 44 M FREMONT 35:50:00
69 61/264 35:52:00 7:11 JOSH HICKS 33 M DUBLIN 35:52:00
70 62/264 35:53:00 7:11 NICK KUBIAK 31 M MAUMEE 35:53:00
71 63/264 35:59:00 7:12 DJ MICHEL 25 M PEMBERVILLE 35:59:00
72 64/264 36:01:00 7:13 PAUL DEJONG 15 M PERRYSBURG 36:01:00
73 65/264 36:08:00 7:14 JON BAKER 51 M MILLBURY 36:08:00
74 66/264 36:14:00 7:15 CAMERON TAFELSKI 16 M PERRYSBURG 36:14:00
75 9/247 36:15:00 7:15 JONI BISON 28 F TIFFIN 36:15:00
76 67/264 36:18:00 7:16 ERIC BROWN 41 M LUCKEY 36:18:00
77 68/264 36:19:00 7:16 JACOB KISSELL 16 M GIBSONBURG 36:19:00
78 69/264 36:22:00 7:17 MATT MEYERS 36 M FOSTORIA 36:22:00
79 70/264 36:25:00 7:17 ANDREW BUSHMAN 24 M PEMBERVILLE 36:25:00
80 71/264 36:26:00 7:18 JOHN REICBOTT 17 M BOWLING GREEN 36:26:00
81 72/264 36:35:00 7:19 ERICH SCHROEDER 16 M PERRYSBURG 36:35:00
82 73/264 36:37:00 7:20 JOHN MAHER 46 M PERRYSBURG 36:37:00
83 74/264 36:40:00 7:20 JACOB HENRY 16 M PERRYSBURG 36:40:00
84 75/264 36:42:00 7:21 CHAD WEILAND 30 M HOLLAND 36:42:00
85 76/264 36:44:00 7:21 BRET WEIGMAN 28 M COLUMBUS 36:44:00
86 10/247 36:47:00 7:22 AMY CRAFT AHRENS 43 F BOWLING GREEN 36:47:00
87 77/264 37:04:00 7:25 MATTHEW DUSHANE 39 M GIBSONBURG 37:04:00
88 78/264 37:04:00 7:25 ADAM CUFR 35 M PERRYSBURG 37:04:00
89 79/264 37:05:00 7:25 DAVID HILTNER 29 M SYLVANIA 37:05:00
90 80/264 37:06:00 7:26 KENT BUEHRER 47 M MAUMEE 37:06:00
91 81/264 37:08:00 7:26 KEN BYRD 52 M PERRYSBURG 37:08:00
92 82/264 37:09:00 7:26 ANTHONY CARIS 12 M PEMBERVILLE 37:09:00
93 83/264 37:09:00 7:26 ANDY KOHLER 46 M GIBSONBURG 37:09:00
94 84/264 37:10:00 7:26 CASEY DELANEY 18 M PERRYSBURG 37:10:00
95 85/264 37:13:00 7:27 STEVE KESSEN 27 M NORTH RIDGEVILLE 37:13:00
96 11/247 37:14:00 7:27 ABIGAIL REYMANN 16 F PERRYSBURG 37:14:00
97 86/264 37:18:00 7:28 SCOTT NEWSOM 39 M SYLVANIA 37:18:00
98 87/264 37:18:00 7:28 TIM LIEDRECHT 18 M ADRIAN MI 37:18:00
99 12/247 37:19:00 7:28 MEGAN OLZAK 17 F PERRYSBURG 37:19:00
100 88/264 37:20:00 7:28 MIKE SCHALLER 37 M WHITEHOUSE 37:20:00
101 89/264 37:29:00 7:30 JORDYN LANDRAM 17 M TOLEDO 37:29:00
102 90/264 37:32:00 7:31 MITCHELL GARDNER 14 M BOWLING GREEN 37:32:00
103 91/264 37:34:00 7:31 DEKE MATTHEWS 30 M COLUMBUS 37:34:00
104 92/264 37:38:00 7:32 TYLER REMEIS 14 M BOWLING GREEN 37:38:00
105 93/264 37:41:00 7:33 SETH BUCHHOLZ 13 M WATERVILLE 37:41:00
106 13/247 37:42:00 7:33 LENNA WESTERKAMP 31 F BIG RAPIDS 37:42:00
107 94/264 37:44:00 7:33 JEREMY CHAMBERS 13 M BOWLING GREEN 37:44:00
108 14/247 37:45:00 7:33 MADISON RENOLLET 16 F BRADNER 37:45:00
109 15/247 37:45:00 7:33 CYNDI HENLINE 29 F LUCKEY 37:45:00
110 95/264 37:45:00 7:33 BRADLEY YANIGA 27 M PEMBERVILLE 37:45:00
111 16/247 37:51:00 7:35 KAREN KLAPPER 33 F PERRYSBURG 37:51:00
112 96/264 37:51:00 7:35 JOEY SALINAS 14 M GENOA 37:51:00
113 97/264 37:51:00 7:35 AUSTIN EZZONE 13 M BOWLING GREEN 37:51:00
114 98/264 37:56:00 7:36 ALEJANDRO ( RODRIGUEZ 44 M WOODVILLE 37:56:00
115 17/247 37:56:00 7:36 AMY SPIETH 36 F NAPOLEON 37:56:00
116 99/264 37:56:00 7:36 ALAN ISBELL 46 M OREGON 37:56:00
117 18/247 38:08:00 7:38 ASHLEY PARKS 16 F TOLEDO 38:08:00
118 100/264 38:08:00 7:38 JACK ROBERSON 17 M TOLEDO 38:08:00
119 19/247 38:08:00 7:38 CHRISTY MILLER 32 F LUCKEY 38:08:00
120 20/247 38:12:00 7:39 LYNDSEY MATUS 12 F MILLBURY 38:12:00
121 21/247 38:12:00 7:39 ALEX MATUS 12 F MILLBURY 38:12:00
122 22/247 38:13:00 7:39 KELSEY LAUCK 20 F COLUMBUS 38:13:00
123 101/264 38:13:00 7:39 ALEC GRIESELDING 15 M HOLLAND 38:13:00
124 102/264 38:17:00 7:40 GARY THOMASSON 51 M WOODVILLE 38:17:00
125 103/264 38:18:00 7:40 NATHAN SMITH 22 M ELIDA 38:18:00
126 23/247 38:19:00 7:40 MADDIE TYSON 12 F HELENA 38:19:00
127 104/264 38:20:00 7:40 JESSE HARMON 27 M EMERALD ISLE 38:20:00
128 105/264 38:25:00 7:41 ANDREW GLICK 52 M TIFFIN 38:25:00
129 24/247 38:31:00 7:42 STACY ACKERMAN 31 F TOLEDO 38:31:00
130 25/247 38:35:00 7:43 WILLIAM GIBSON 18 F BOWLING GREEN 38:35:00
131 26/247 38:38:00 7:44 KAYLYN WEISENBURGER 16 F PERRYSBURG 38:38:00
132 27/247 38:39:00 7:44 MICHELLE NACHTRAB 24 F LUCKEY 38:39:00
133 106/264 38:40:00 7:44 TYLER DE VAUL 16 M TOLEDO 38:40:00
134 28/247 38:41:00 7:45 MADDIE JACKSON 14 F PEMBERVILLE 38:41:00
135 107/264 38:44:00 7:45 IAN YOUNG 49 M BOWLING GREEN 38:44:00
136 108/264 38:52:00 7:47 MATTHEW BOSTDORFF 34 M BOWLING GREEN 38:52:00
137 109/264 38:52:00 7:47 RYAN CHIMNEY 19 M PERRYSBURG 38:52:00
138 29/247 38:57:00 7:48 TIFFANY DIXON 29 F BOWLING GREEN 38:57:00
139 110/264 38:57:00 7:48 JASON ZILLES 35 M PERRYSBURGH 38:57:00
140 111/264 38:57:00 7:48 CHOI HOSUNG 16 M PERRYSBURG 38:57:00
141 30/247 39:04:00 7:49 LINDSAY FOLK 30 F PERRYSBURG 39:04:00
142 31/247 39:08:00 7:50 SANDRA PEASE 44 F PEMBERVILLE 39:08:00
143 112/264 39:10:00 7:50 DENNIS SCOTT 67 M TOLEDO 39:10:00
144 113/264 39:16:00 7:52 TOM KOLENA 52 M TOLEDO 39:16:00
145 114/264 39:16:00 7:52 JON SMITH 18 M TOLEDO 39:16:00
146 115/264 39:18:00 7:52 STEVE POWELL 53 M BOWLING GREEN 39:18:00
147 32/247 39:21:00 7:53 KARA LLEWELLYN 42 F PERRYSBURG 39:21:00
148 116/264 39:25:00 7:53 MARK MATHESON 26 M BOWLING GREEN 39:25:00
149 117/264 39:27:00 7:54 DAVID CHEN 39 M MAUMEE 39:27:00
150 118/264 39:28:00 7:54 BOB THOMASON 39 M PERRYSBURG 39:28:00
151 119/264 39:30:00 7:54 TREVOR VAUGHN 15 M PEMBERVILLE 39:30:00
152 120/264 39:31:00 7:55 SAM HERRINGTON 36 M BOWLING GREEN 39:31:00
153 121/264 39:33:00 7:55 BOB MIDDEN 58 M BOWLING GREEN 39:33:00
154 122/264 39:34:00 7:55 RICHARD MORGAN 54 M PEMBERVILLE 39:34:00
155 33/247 39:35:00 7:55 CARIE CUFR 33 F PERRYSBURG 39:35:00
156 123/264 39:35:00 7:55 KENNETH MULLIKIN 17 M TOLEDO 39:35:00
157 124/264 39:37:00 7:56 GARY LAKE 64 M HONOR 39:37:00
158 125/264 39:38:00 7:56 KEVIN HAMEN 32 M WESTERVILLE 39:38:00
159 34/247 39:41:00 7:57 KARA OBERLANDER 29 F BOWLING GREEN 39:41:00
160 35/247 39:42:00 7:57 LISA HOFFMAN 34 F HELENA 39:42:00
161 36/247 39:42:00 7:57 JAMIE GILBERT 31 F FREMONT 39:42:00
162 37/247 39:49:00 7:58 ASHLEY RIEDEMAN 29 F CURTICE 39:49:00
163 126/264 39:53:00 7:59 JASON RAIKE 30 M TOLEDO 39:53:00
164 38/247 39:54:00 7:59 JODIE COLE 28 F WATERVILLE 39:54:00
165 39/247 39:55:00 7:59 KYLE WOMACK 24 F TOLEDO 39:55:00
166 127/264 39:56:00 8:00 JIMMY ZIELINSKI 16 M PEMBERVILLE 39:56:00
167 128/264 39:58:00 8:00 DEREK DOHANES 14 M BOWLING GREEN 39:58:00
168 40/247 39:58:00 8:00 GABRIELA SHLLAKU 23 F ROSSFORD 39:58:00
169 41/247 40:00:00 8:00 SARA MORGAN 22 F PEMBERVILLE 40:00:00
170 129/264 40:05:00 8:01 GREG RICH 48 M BOWLING GREEN 40:05:00
171 130/264 40:09:00 8:02 MATTHEW HISER 20 M GIBSONBURG 40:09:00
172 131/264 40:10:00 8:02 TIM SCHUNK 38 M PERRYSBURG 40:10:00
173 42/247 40:10:00 8:02 BETH KOHLER 48 F GIBSONBURG 40:10:00
174 132/264 40:11:00 8:03 JESSE SQUIRE 39 M SLYVANIA 40:11:00
175 43/247 40:13:00 8:03 AMANDA POLL 15 F PERRYSBURG 40:13:00
176 44/247 40:16:00 8:04 GINA WARNKE 36 F OAK HARBOR 40:16:00
177 133/264 40:20:00 8:04 MITCHEL FREEMAN 53 M COLUMBUS 40:20:00
178 134/264 40:23:00 8:05 COREY WEILAND 23 M PERRYSBURG 40:23:00
179 45/247 40:28:00 8:06 LAUREN KIRWEN 16 F GIBSONBURG 40:28:00
180 135/264 40:28:00 8:06 JUSTIN BURKET 16 M PERRYSBURG 40:28:00
181 46/247 40:30:00 8:06 MEGAN FUERST 17 F PERRYSBURG 40:30:00
182 47/247 40:36:00 8:08 CARRIE HERRINGSHAW 47 F BOWLING GREEN 40:36:00
183 136/264 40:36:00 8:08 JAKE POIRY 15 M PEMBERVILLE 40:36:00
184 137/264 40:36:00 8:08 STEVE LIEBRECHT 53 M ADRIAN 40:36:00
185 138/264 40:39:00 8:08 ERIC JOHNSON 16 M PERRYSBURG 40:39:00
186 48/247 40:49:00 8:10 LENA KRUKEMYER 16 F PEMBERVILLE 40:49:00
187 49/247 40:49:00 8:10 LISA HOLCOMB 17 F GIBSONBURG 40:49:00
188 139/264 40:50:00 8:10 GARY HAAS 37 M LUCKEY 40:50:00
189 140/264 40:52:00 8:11 JOHN CIEPLY 47 M ROSSFORD 40:52:00
190 50/247 40:56:00 8:12 HUNTER JOHNSON 16 F MILLBURY 40:56:00
191 141/264 40:56:00 8:12 GLENN BOWEN 58 M LINDSEY 40:56:00
192 142/264 40:56:00 8:12 BENJAMIN STEBING 35 M ELMORE 40:56:00
193 51/247 40:58:00 8:12 JENNIFER RADER 31 F FINDLAY 40:58:00
194 143/264 41:05:00 8:13 ANDREW DAVIDSON 14 M STONY RIDGE 41:05:00
195 52/247 41:06:00 8:14 KELSEY APPELHANS 17 F PEMBERVILLE 41:06:00
196 144/264 41:10:00 8:14 ETHAN WESTERKAMP 10 M BIG RAPIDS 41:10:00
197 145/264 41:14:00 8:15 JAMES WEINAUDY 48 M BOWLING GREEN 41:14:00
198 146/264 41:16:00 8:16 TROY BARMAN 41 M PEMBERVILLE 41:16:00
199 53/247 41:16:00 8:16 MACKENZIE DAMON 27 F PEMBERVILLE 41:16:00
200 54/247 41:26:00 8:18 DENISE DASHNER 40 F TEMPERANCE 41:26:00
201 147/264 41:28:00 8:18 WESLEY STEEN 19 M POWELL 41:28:00
202 148/264 41:32:00 8:19 JOHN DIBLING 58 M PEMBERVILLE 41:32:00
203 149/264 41:33:00 8:19 LLOYD TRIGGS 38 M BOWLING GREEN 41:33:00
204 150/264 41:34:00 8:19 ERIC CORNS 44 M PEMBERVILLE 41:34:00
205 151/264 41:38:00 8:20 JACOB LEADER 13 M BOLWING GREEN 41:38:00
206 55/247 41:38:00 8:20 SASHA LANNING 13 F BOWLING GREEN 41:38:00
207 56/247 41:43:00 8:21 LINDSAY MADARAS 26 F COLUMBUS 41:43:00
208 152/264 41:43:00 8:21 RON HISER 50 M GIBSONBURG 41:43:00
209 57/247 41:43:00 8:21 BETH TISCHLER 32 F CLYDE 41:43:00
210 153/264 41:46:00 8:22 JOHN CAVANAUGH 43 M PERRYSBURG 41:46:00
211 154/264 41:51:00 8:23 BRENT MATUS 8 M MILLBURY 41:51:00
212 58/247 41:51:00 8:23 CARRIE HALL 33 F SOUTH LEBANON 41:51:00
213 155/264 41:52:00 8:23 DUSTIN HUDIK 31 M DELTA 41:52:00
214 156/264 41:53:00 8:23 DENNIS BAHNSEN 57 M PORT CLINTON 41:53:00
215 157/264 41:56:00 8:24 MARC GLOTZBECKER 39 M FREMONT 41:56:00
216 158/264 41:59:00 8:24 HOLDEN SONDERGELD 17 M GIBSONBURG 41:59:00
217 59/247 42:01:00 8:25 SARAH BURROW 40 F SAINT JOSEPH 42:01:00
218 60/247 42:11:00 8:27 ANGELA PANZERO 15 F PERRYSBURG 42:11:00
219 61/247 42:13:00 8:27 BRITTANY GRINER 19 F ROSSFORD 42:13:00
220 62/247 42:14:00 8:27 JENNIFER BAUM 14 F PERRYSBURG 42:14:00
221 63/247 42:23:00 8:29 HAILEE GREENLESE 16 F WALBRIDGE 42:23:00
222 159/264 42:25:00 8:29 JIM ANTONCZAK 52 M OLMSTEAD TWP 42:25:00
223 160/264 42:31:00 8:31 JT BRITT 15 M TOLEDO 42:31:00
224 161/264 42:31:00 8:31 WARREN KILLIAN 25 M BRYAN 42:31:00
225 162/264 42:31:00 8:31 VINCE HORNIK 45 M TOLEDO 42:31:00
226 163/264 42:33:00 8:31 COREY SELHORST 15 M PERRYSBURG 42:33:00
227 64/247 42:33:00 8:31 KIMBER LLEWELLYN 11 F PERRYSBURG 42:33:00
228 65/247 42:42:00 8:33 KASEY GERAGHTY 15 F ROSSFORD 42:42:00
229 66/247 42:47:00 8:34 JULIE RUSSELL 17 F PEMBERVILLE 42:47:00
230 67/247 42:47:00 8:34 KIERSTEN PEREZ 12 F WOODVILLE 42:47:00
231 164/264 42:49:00 8:34 BRUCE MCLEAN 58 M ARCATA 42:49:00
232 68/247 42:49:00 8:34 CARISSA SANCHEZ 24 F LUCKEY 42:49:00
233 69/247 42:51:00 8:35 COURTNEY BURNER 12 F WOODVILLE 42:51:00
234 70/247 42:52:00 8:35 DANIELE THORTON 23 F LUCKEY 42:52:00
235 165/264 42:54:00 8:35 CAMDEN SONDERGELD 11 M GIBSONBURG 42:54:00
236 71/247 43:02:00 8:37 NATASHA KIRKBRIDE 15 F PEMBERVILLE 43:02:00
237 166/264 43:06:00 8:38 TYLER MITCHELL 20 M ROSSFORD 43:06:00
238 167/264 43:07:00 8:38 LAWRENCE COATES 53 M BOWLING GREEN 43:07:00
239 72/247 43:13:00 8:39 CASEY ADAMCIK 19 F PERRYSBURG 43:13:00
240 73/247 43:14:00 8:39 PAMELA RELLSTAB 27 F HOLGATE 43:14:00
241 168/264 43:19:00 8:40 ADAM LOOMIS 25 M LUCKEY 43:19:00
242 169/264 43:23:00 8:41 ROB HOHLER 22 M BOWLING GREEN 43:23:00
243 170/264 43:25:00 8:41 JOHN CHAPMAN 55 M BOWLING GREEN 43:25:00
244 171/264 43:28:00 8:42 DWIGHT SHULER 57 M BOWLING GREEN 43:28:00
245 74/247 43:36:00 8:44 ELIZABETH GORSKI 45 F BOWLING GREEN 43:36:00
246 172/264 43:39:00 8:44 DARCY CAVANAUGH 11 M PERRYSBURG 43:39:00
247 173/264 43:42:00 8:45 JUSTIN COVERRUBISS 25 M TOLEDO 43:42:00
248 75/247 43:43:00 8:45 LINDA MCKOWN 41 F SYLVANIA 43:43:00
249 174/264 43:45:00 8:45 DAVE NOE 42 M PERRYSBURG 43:45:00
250 76/247 43:45:00 8:45 KELLY PODOLAK 23 F NORTH BALTIMORE 43:45:00
251 175/264 43:51:00 8:47 STEVEN SOMOGYI 42 M PERRYSBURG 43:51:00
252 176/264 43:52:00 8:47 TYLER JENSEN 17 M TOLEDO 43:52:00
253 177/264 43:55:00 8:47 CODY SEIFERT 19 M BOWLING GREEN 43:55:00
254 178/264 43:56:00 8:48 EDWARD SCHROEDER 21 M PERRYSBURG 43:56:00
255 77/247 43:59:00 8:48 MISSY JONES 16 F PERRYSBURG 43:59:00
256 78/247 44:16:00 8:52 LISA LANDIS 36 F HOLLAND 44:16:00
257 79/247 44:17:00 8:52 LAURA MORROW 41 F PERRYSBURG 44:17:00
258 80/247 44:17:00 8:52 RACHEL MORITZ 27 F PEMBERVILLE 44:17:00
259 81/247 44:21:00 8:53 CYNTHIA OCANA 15 F PERRYSBURG 44:21:00
260 179/264 44:22:00 8:53 ROBERT NEITZ 63 M LUCKEY 44:22:00
261 82/247 44:26:00 8:54 JENNIFER SCHUERMAN 44 F PEMBERVILLE 44:26:00
262 83/247 44:32:00 8:55 COURTNEY KSENICH 14 F GIBSONBURG 44:32:00
263 84/247 44:33:00 8:55 ELIZABETH SNYDER 32 F PEMBERVILLE 44:33:00
264 85/247 44:36:00 8:56 HEATHER PRESTON 27 F COLUMBUS 44:36:00
265 180/264 44:37:00 8:56 MARTY FLIPSE 43 M PEMBERVILLE 44:37:00
266 86/247 44:39:00 8:56 SAMANTHA DECKER 18 F PEMBERVILLE 44:39:00
267 181/264 44:41:00 8:57 KEN KUTZ 48 M GRAND RAPIDS 44:41:00
268 182/264 44:53:00 8:59 ADAM COUTCHER 16 M PERRYSBURG 44:53:00
269 87/247 44:55:00 8:59 AMY KOEHLER 17 F PERRYSBURG 44:55:00
270 88/247 44:58:00 9:00 TERESA BADENHOP 41 F PEMBERVILLE 44:58:00
271 89/247 45:00:00 9:00 LISA SENTLE 40 F GIBSONBURG 45:00:00
272 183/264 45:01:00 9:01 DOMINGO VALADEZ 51 M TEMPERANCE 45:01:00
273 90/247 45:02:00 9:01 PAT SELFE 51 F PERRYSBURG 45:02:00
274 184/264 45:02:00 9:01 MARK SELFE 51 M PERRYSBURG 45:02:00
275 185/264 45:08:00 9:02 TIM HEARNS 53 M TOLEDO 45:08:00
276 91/247 45:18:00 9:04 MCKENZIE BRITTENHAM 12 F MILLBURY 45:18:00
277 186/264 45:19:00 9:04 BRAD JURSKI 56 M GIBSONBURG 45:19:00
278 92/247 45:25:00 9:05 ZENAIDA FREW 15 F FREMONT 45:25:00
279 187/264 45:26:00 9:06 DAVE CARIS 37 M PEMBERVILLE 45:26:00
280 93/247 45:30:00 9:06 MCKAYLA PHILLIPS 14 F BRADNER 45:30:00
281 94/247 45:30:00 9:06 CASSIDY KASISCNEE 15 F PERRYSBURG 45:30:00
282 95/247 45:31:00 9:07 KAREN SCHLING 50 F PERRYSBURG 45:31:00
283 188/264 45:31:00 9:07 NICK SCHLING 21 M PERRYSBURG 45:31:00
284 96/247 45:33:00 9:07 CHRISTINE RUSSELL 14 F PEMBERVILLE 45:33:00
285 189/264 45:35:00 9:07 SAMUEL BROWN 18 M LUCKEY 45:35:00
286 190/264 45:35:00 9:07 MATTHEW MCCLURE 28 M PERRYSBURG 45:35:00
287 191/264 45:35:00 9:07 DAVID BIRCKBICHLER 63 M JOHNSTOWN 45:35:00
288 97/247 45:37:00 9:08 CINDY ZILLES 34 F PERRYSBURH 45:37:00
289 192/264 45:37:00 9:08 GARY WHITE 53 M PEMBERVILLE 45:37:00
290 193/264 45:39:00 9:08 DONALD GREENLESE 44 M WALBRIDGE 45:39:00
291 194/264 45:42:00 9:09 WESLEY RETHMAN 27 M MARTIN 45:42:00
292 98/247 45:43:00 9:09 MANDY BURKHOLDER 31 F WAUSEON 45:43:00
293 195/264 45:44:00 9:09 KEN FINLEY 40 M PEMBERVILLE 45:44:00
294 196/264 45:44:00 9:09 JOHN PRZYBYLSKI 17 M PEMBERVILLE 45:44:00
295 99/247 46:07:00 9:14 MEGAN RECKER 24 F WOODVILLE 46:07:00
296 100/247 46:10:00 9:14 ABBEY GERAGHTY 17 F ROSSFORD 46:10:00
297 197/264 46:15:00 9:15 ADAM SPECK 27 M MAUMEE 46:15:00
298 101/247 46:16:00 9:16 ERIKA MASCHMEYER 30 F CHICAGO 46:16:00
299 102/247 46:21:00 9:17 ANDEE MATTHEWS 31 F COLUMBUS 46:21:00
300 103/247 46:22:00 9:17 BRYANNE LEE 30 F GIBSONBURG 46:22:00
301 198/264 46:26:00 9:18 SCOTT PALUCH 44 M BOWLING GREEN 46:26:00
302 199/264 46:27:00 9:18 JAMES ADAMCIK 58 M PERRYSBURG 46:27:00
303 200/264 46:31:00 9:19 BOB BARCH 16 M PERRYSBURG 46:31:00
304 201/264 46:31:00 9:19 TREVOR SOMOGYI 15 M PERRYSBURG 46:31:00
305 104/247 46:32:00 9:19 ALEXANDRA BROCKSCHMIDT 12 F LUCKEY 46:32:00
306 202/264 46:39:00 9:20 CLANTON O'CONNELL 37 M TOLEDO 46:39:00
307 203/264 46:39:00 9:20 ERIC CHALFIN 21 M PERRYSBURG 46:39:00
308 204/264 46:41:00 9:21 GILBERT WILSON 60 M TOLEDO 46:41:00
309 205/264 46:41:00 9:21 NOLAN NACHTRAB 24 M LUCKEY 46:41:00
310 206/264 46:42:00 9:21 PAUL HALBISEN 30 M FREMONT 46:42:00
311 105/247 46:44:00 9:21 DEBBIE KRAMER 47 F BOWLING GREEN 46:44:00
312 207/264 46:46:00 9:22 THOMAS WILES 68 M PERRYSBURG 46:46:00
313 208/264 46:47:00 9:22 DAVE BUSHMAN 28 M WESTON 46:47:00
314 209/264 46:50:00 9:22 TAYLOR SKEES 22 M CURTICE 46:50:00
315 106/247 46:51:00 9:23 SARAH PRICE 22 F BOWLING GREEN 46:51:00
316 210/264 46:51:00 9:23 GREG TILTON 24 M WATERVILLE 46:51:00
317 107/247 46:59:00 9:24 CAITLIN STICKLER 17 F WALBRIDGE 46:59:00
318 108/247 47:03:00 9:25 MADELINE HORVAT 15 F PERRYSBURG 47:03:00
319 109/247 47:04:00 9:25 CARA BIRD 16 F PERRYSBURG 47:04:00
320 211/264 47:04:00 9:25 JOSHUA JOHNSTON 22 M PEMBERVILLE 47:04:00
321 212/264 47:05:00 9:25 RON RIFE 27 M MAUMEE 47:05:00
322 213/264 47:05:00 9:25 JOSHUA BIERLEY 12 M BRADNER 47:05:00
323 214/264 47:09:00 9:26 DANIEL DILLON 28 M GENOA 47:09:00
324 110/247 47:12:00 9:27 KARA HORVATH 15 F PERRYSBURG 47:12:00
325 111/247 47:20:00 9:28 SARA STARR 16 F PERRYSBURG 47:20:00
326 112/247 47:20:00 9:28 ANGEL OVERHOLT 15 F PERRYSBURG 47:20:00
327 113/247 47:20:00 9:28 ERIN NELSON 16 F LUCKEY 47:20:00
328 215/264 47:27:00 9:30 LEW ACKERMAN 33 M TOLEDO 47:27:00
329 114/247 47:27:00 9:30 JOYCE ABRAHAM 49 F BOWLING GREEN 47:27:00
330 115/247 47:36:00 9:32 BAYLEE RATHMAN 14 F PERRYSBURG 47:36:00
331 216/264 47:38:00 9:32 MICHAEL WESTERHAUS 60 M STRONGSVILLE 47:38:00
332 116/247 47:42:00 9:33 AMY REED 39 F GIBSONBURG 47:42:00
333 217/264 47:52:00 9:35 TODD BUCHHOLZ 46 M WATERVILLE 47:52:00
334 218/264 47:53:00 9:35 TIM HILTNER 55 M PEMBERVILLE 47:53:00
335 117/247 47:55:00 9:35 EMILY ISLEY 14 F PERRYSBURG 47:55:00
336 118/247 47:56:00 9:36 KELSEY LONG 16 F WALBRIDGE 47:56:00
337 119/247 47:56:00 9:36 MARIA KRAMER 35 F CLYDE 47:56:00
338 120/247 47:57:00 9:36 SIERRA CORNS 14 F PEMBERVILLE 47:57:00
339 121/247 48:04:00 9:37 JENA RISEBORONGL 33 F NAPOLEON 48:04:00
340 122/247 48:05:00 9:37 EMILY ZIELINSKI 14 F PEMBERVILLE 48:05:00
341 123/247 48:06:00 9:38 STEPHANIE SPECK 30 F LUCKEY 48:06:00
342 124/247 48:07:00 9:38 MEGAN WELKER 12 F LUCKEY 48:07:00
343 125/247 48:08:00 9:38 AUGREY FLORES 17 F PERRYSBURG 48:08:00
344 126/247 48:09:00 9:38 JADE BRAMAN 22 F COLUMBUS 48:09:00
345 127/247 48:14:00 9:39 COLLEEN SCHLEA 44 F HELENA 48:14:00
346 219/264 48:18:00 9:40 CONNOR SPECK 14 M PERRYSBURG 48:18:00
347 220/264 48:35:00 9:43 JIM JORDAN 42 M PERRYSBURG 48:35:00
348 128/247 48:36:00 9:44 JACKIE DAVENPORT 38 F PERRYSBURG 48:36:00
349 129/247 48:36:00 9:44 LAURA JOEHLIN 26 F CURTICE 48:36:00
350 221/264 48:42:00 9:45 GREG STEHLIN 61 M HOLLAND 48:42:00
351 222/264 48:44:00 9:45 TRAVIS MANG 19 M PERRYSBURG 48:44:00
352 130/247 48:47:00 9:46 TESS GAO 16 F PERRYSBURG 48:47:00
353 131/247 48:48:00 9:46 GILLIAN WILKE 28 F MAUMEE 48:48:00
354 132/247 48:48:00 9:46 ALLIE TERMIN 14 F PERRYSBURG 48:48:00
355 133/247 48:48:00 9:46 KELLY SATTLER 30 F WATERVILLE 48:48:00
356 134/247 49:04:00 9:49 MANDY ASHENFELTER 16 F PERRYSBURG 49:04:00
357 135/247 49:08:00 9:50 SHELLY JOSEPH 27 F BOWLING GREEN 49:08:00
358 136/247 49:09:00 9:50 NICOLE HILL 29 F FREMONT 49:09:00
359 137/247 49:19:00 9:52 LINDA RICH 47 F BOWLING GREEN 49:19:00
360 223/264 49:26:00 9:54 LUCAS RAGAN 16 M TOLEDO 49:26:00
361 138/247 49:29:00 9:54 LORI BLOOM 39 F FREMONT 49:29:00
362 139/247 49:30:00 9:54 JESSICA MARTIN 23 F BOWLING GREEN 49:30:00
363 140/247 49:30:00 9:54 MACKENZIE MATHESON 23 F BOWLING GREEN 49:30:00
364 141/247 49:32:00 9:55 CALLIE MAAS 23 F BOWLING GREEN 49:32:00
365 142/247 49:32:00 9:55 NATINA ARISS 29 F PEMBERVILLE 49:32:00
366 224/264 49:32:00 9:55 WALTER ARISS 32 M PEMBERVILLE 49:32:00
367 143/247 49:36:00 9:56 LEE NICKOSON 42 F BOWLING GREEN 49:36:00
368 225/264 49:37:00 9:56 CARL NEWMISTER 40 M LUCKEY 49:37:00
369 144/247 49:40:00 9:56 ERIN BOONIE 29 F FREMONT 49:40:00
370 145/247 49:45:00 9:57 KIMBERLY CARIS 39 F PEMBERVILLE 49:45:00
371 146/247 49:55:00 9:59 STEFANY JACOBY 23 F PEMBERVILLE 49:55:00
372 226/264 50:02:00 10:01 JASON BUSDEKER 38 M PEMBERVILLE 50:02:00
373 147/247 50:02:00 10:01 KERI WALSH 40 F MONROE 50:02:00
374 227/264 50:02:00 10:01 JON WALSH 45 M MONROE 50:02:00
375 148/247 50:04:00 10:01 DANIELLE VAN FLEET 33 F MAUMEE 50:04:00
376 228/264 50:12:00 10:03 EDWARD MATUS 41 M MILLBURY 50:12:00
377 149/247 50:13:00 10:03 DOTTIE RAPP 41 F PEMBERVILLE 50:13:00
378 150/247 50:17:00 10:04 AMY WOLF 17 F BOWLING GREEN 50:17:00
379 229/264 50:18:00 10:04 STEVEN BRONDER 47 M PERRYSBURG 50:18:00
380 230/264 50:19:00 10:04 MATTHEW REGER 43 M BOWLING GREEN 50:19:00
381 231/264 50:21:00 10:05 DAVE WOESSNER 51 M BOWLING GREEN 50:21:00
382 151/247 50:23:00 10:05 JESSICA DUMKE 32 F PERRYSBURG 50:23:00
383 232/264 50:26:00 10:05 JASON HORNING 30 M ANDERSON 50:26:00
384 233/264 50:28:00 10:06 TIM JIVIDEN 51 M PEMBERVILLE 50:28:00
385 234/264 50:36:00 10:08 FANK SCHEMENAUER 45 M LUCKEY 50:36:00
386 152/247 50:46:00 10:10 STEPHANIE SCHNEIDER-SINI 40 F PERRYSBURG 50:46:00
387 153/247 50:56:00 10:12 MORGAN COUTCHER 14 F PERRYSBURG 50:56:00
388 154/247 51:01:00 10:13 MINDY YAP 46 F ROSSFORD 51:01:00
389 155/247 51:05:00 10:13 KATHLEEN TAFELSKI 39 F PERRYSBURG 51:05:00
390 156/247 51:16:00 10:16 ANNETTE ESTEP 38 F GRAND RAPIDS 51:16:00
391 235/264 51:18:00 10:16 RICK SCHMIDT 54 M BOWLING GREEN 51:18:00
392 157/247 51:33:00 10:19 STACEY LOOMIS 26 F LUCKEY 51:33:00
393 158/247 51:45:00 10:21 MOLLY BURKETT 14 F GIBSONBURG 51:45:00
394 159/247 51:51:00 10:23 DANI DONALDSON 24 F PEMBERVILLE 51:51:00
395 160/247 51:51:00 10:23 LINDY DONALDSON 23 F PEMBERVILLE 51:51:00
396 236/264 51:59:00 10:24 STEVE TOROK 63 M BRADNER 51:59:00
397 237/264 51:59:00 10:24 MARK STEINBRUNNER 45 M MILLBURY 51:59:00
398 238/264 52:00:00 10:24 BRIAN ZATTAU 41 M MAUMEE 52:00:00
399 161/247 52:17:00 10:28 HEATHER AMELING 40 F PERRYSBURG 52:17:00
400 239/264 52:19:00 10:28 MICAH MOLNAR 11 M GALENA 52:19:00
401 162/247 52:20:00 10:28 AGNES GAMBER 23 F TOLEDO 52:20:00
402 240/264 52:23:00 10:29 JESUS ALVAREZ 62 M WAYNE 52:23:00
403 241/264 52:25:00 10:29 NICK DONALDSON 25 M PEMBERVILLE 52:25:00
404 163/247 52:26:00 10:30 ELLEN THORNBERRY 16 F PERRYSBURG 52:26:00
405 164/247 52:42:00 10:33 MARY PARKER 23 F COLUMBUS 52:42:00
406 165/247 52:42:00 10:33 AMY JENKINS 23 F GOWLING GREEN 52:42:00
407 242/264 52:51:00 10:35 RR BAUER 36 M BOWLING GREEN 52:51:00
408 166/247 52:56:00 10:36 REAGAN BOICE 13 F PERRSYBURG 52:56:00
409 167/247 52:56:00 10:36 KATHERINE PRZYBYLSKI 13 F PEMBERVILLE 52:56:00
410 168/247 53:10:00 10:38 JEN ROLLO 33 F PEMBERVILLE 53:10:00
411 169/247 53:11:00 10:39 CHERYL DOYLE 52 F PEMBERVILLE 53:11:00
412 170/247 53:16:00 10:40 EMILY MILLER 16 F PERRYSBURG 53:16:00
413 171/247 53:22:00 10:41 SHERRY DAVENPORT 48 F ELMORE 53:22:00
414 172/247 53:22:00 10:41 VICKIE GOTTSCHALK 46 F ELMORE 53:22:00
415 173/247 53:31:00 10:43 TAYLOR JORDAN 15 F PERRYSBURG 53:31:00
416 243/264 53:44:00 10:45 NICK COFFMAN 12 M PEMBERVILLE 53:44:00
417 174/247 53:55:00 10:47 LILLEY DECKER 39 F FREMONT 53:55:00
418 175/247 53:56:00 10:48 JILLIAN MEYER 26 F WATERVILLE 53:56:00
419 176/247 53:56:00 10:48 RIKKI JEREMY 28 F BOLWING GREEN 53:56:00
420 244/264 54:00:00 10:48 PHILIP DONALDSON 58 M PEMBERVILLE 54:00:00
421 245/264 54:04:00 10:49 PHIL FOUR-THIRTEEN 51 M TOLEDO 54:04:00
422 177/247 54:07:00 10:50 KOURTNEY JARED 33 F PEMBERVILLE 54:07:00
423 246/264 54:10:00 10:50 DWIGHT FERTIG 38 M PEMBERVILLE 54:10:00
424 178/247 54:10:00 10:50 PATRICIA FERTIG 38 F PEMBERVILLE 54:10:00
425 179/247 54:21:00 10:53 JESSICA BERLEKAMP-CROW 28 F FREMONT 54:21:00
426 180/247 54:37:00 10:56 JULIA EDINGER 15 F PERRYSBURG 54:37:00
427 181/247 54:45:00 10:57 JAIME HANSEN 33 F BEXLEY 54:45:00
428 182/247 55:04:00 11:01 BREANNE LIESKE 31 F OAK HARBOR 55:04:00
429 183/247 55:10:00 11:02 PAULA RADABAUGH 44 F LUCKEY 55:10:00
430 184/247 55:11:00 11:03 KELLY ROSS 40 F PEMBERVILLE 55:11:00
431 185/247 55:11:00 11:03 BRITNEY MCINTIRE 24 F WOODVILLE 55:11:00
432 186/247 55:11:00 11:03 TARA SWIM 24 F FREMONT 55:11:00
433 247/264 55:11:00 11:03 JAY ROLLO 33 M PEMBERVILLE 55:11:00
434 187/247 55:12:00 11:03 JESSICA DUDLEY 16 F PERRYSBURG 55:12:00
435 188/247 55:14:00 11:03 MADELINE HEARONS 17 F PERRYSBURG 55:14:00
436 189/247 55:31:00 11:07 RACHEL PUNCHES 27 F BOWLING GREEN 55:31:00
437 248/264 55:39:00 11:08 J TROKNYA 66 M PERRYSBURG 55:39:00
438 249/264 55:56:00 11:12 JEFFERY DAVIS 48 M TOLEDO 55:56:00
439 250/264 56:08:00 11:14 WAYNE BARBOUR 66 M BOWLING GREEN 56:08:00
440 190/247 56:25:00 11:17 DESIREE NIDIFFER 12 F PEMBERVILLE 56:25:00
441 191/247 56:25:00 11:17 ALYSSA DECKER 12 F PEMBERVILLE 56:25:00
442 251/264 56:38:00 11:20 CARL LOHRBACH 59 M PEMBERVILLE 56:38:00
443 252/264 56:39:00 11:20 NEIL BADENHOP 43 M PEMBERVILLE 56:39:00
444 192/247 56:44:00 11:21 ALLIE BARTHOLOMEW 15 F PERRYSBURG 56:44:00
445 193/247 57:03:00 11:25 JAMIE KACZMARSKI 31 F TOLEDO 57:03:00
446 194/247 57:14:00 11:27 KATHERINE HUNT 27 F TOLEDO 57:14:00
447 195/247 57:14:00 11:27 JANELLE TUTTAMORE 31 F PEMBERVILLE 57:14:00
448 196/247 57:19:00 11:28 KELLY PLATH 27 F TOLEDO 57:19:00
449 197/247 57:35:00 11:31 JEANNE WEISENBURGER 51 F PEMBERVILLE 57:35:00
450 198/247 57:36:00 11:32 REBACCA FITZPATRICK 45 F PEMBERVILLE 57:36:00
451 199/247 58:12:00 11:39 CHERYL RIFFNER 49 F BOWLING GREEN 58:12:00
452 253/264 58:16:00 11:40 TIM GIBSON 52 M BOWLING GREEN 58:16:00
453 200/247 58:25:00 11:41 JESSICA REITZ 22 F MAUMEE 58:25:00
454 201/247 58:28:00 11:42 NATALIE NIESCHWARTZ 10 F PEMBERVILLE 58:28:00
455 202/247 58:29:00 11:42 KENDRA SEIFERT 21 F COLUMBUS 58:29:00
456 254/264 58:32:00 11:43 TOM ALTHOFF 70 M GAND RAPIDS 58:32:00
457 203/247 58:34:00 11:43 RENE DIX 46 F WOODVILLE 58:34:00
458 204/247 58:38:00 11:44 KAREN WU 31 F PERRYSBURG 58:38:00
459 205/247 58:42:00 11:45 AMY HELM 22 F LUCKEY 58:42:00
460 206/247 59:08:00 11:50 RENEE FARMER 40 F PEMBERVILLE 59:08:00
461 207/247 59:18:00 11:52 VAL KOPP 14 F PERRYSBURGH 59:18:00
462 208/247 59:28:00 11:54 ABBIE HERMILLER 17 F PERRYSBURG 59:28:00
463 255/264 59:31:00 11:55 MARLIN SHORT 62 M WAUSEON 59:31:00
464 256/264 59:48:00 11:58 CALEB DAVENPORT 13 M TOLEDO 59:48:00
465 209/247 1:00:12 12:03 ALLYSON RIFE 23 F PEMBERVILLE 1:00:12
466 257/264 1:00:12 12:03 DOUG KOLPIEN 23 M BOLWING GREEN 1:00:12
467 210/247 1:00:26 12:06 LAUREN OZUK 12 F NORTHWOOD 1:00:26
468 211/247 1:00:29 12:06 SOREN SONDERGELD 13 F GIBSONBURG 1:00:29
469 212/247 1:00:30 12:06 ANDREA SPENCER 12 F LUCKEY 1:00:30
470 213/247 1:00:36 12:08 LAURIE DEMBICKI 49 F PEMBERVILLE 1:00:36
471 214/247 1:00:42 12:09 CHRISTINA HARPER 41 F PEMBERVILLE 1:00:42
472 215/247 1:00:42 12:09 KRISTEN DEAL 12 F WALBRIDGE 1:00:42
473 216/247 1:00:47 12:10 JEANNIE RICKER 29 F FOSTORIA 1:00:47
474 217/247 1:01:04 12:13 BRIDGET PARHAM 16 F PERRYSBURG 1:01:04
475 258/264 1:01:26 12:18 ADAM SMITH 23 M TOLEDO 1:01:26
476 259/264 1:01:47 12:22 THOMAS ROBERSON 44 M TOLEDO 1:01:47
477 218/247 1:02:11 12:27 AMY WITKER 34 F BRADNER 1:02:11
478 260/264 1:02:11 12:27 MIKE GRISWOLD 35 M PEMBERVILLE 1:02:11
479 219/247 1:02:39 12:32 ELIZABETH HAMEN 29 F WESTERVILLE 1:02:39
480 220/247 1:03:13 12:39 EMILY BLOOM 12 F FREMONT 1:03:13
481 221/247 1:03:14 12:39 EMILY WINTERS 12 F MARTIN 1:03:14
482 222/247 1:03:50 12:46 KIM COFFMAN 38 F PEMBERVILLE 1:03:50
483 261/264 1:04:26 12:54 BILL DAVIS 79 M FOSTORIA 1:04:26
484 223/247 1:04:52 12:59 LINDA LEWIS 40 F FREMONT 1:04:52
485 224/247 1:05:16 13:04 CATHLEEN BLATCHLY 53 F BOWLING GREEN 1:05:16
486 225/247 1:05:17 13:04 ALEXUS BOISE 12 F NORTHWOOD 1:05:17
487 226/247 1:05:20 13:04 LAUREN PERRY 12 F NORTHWOOD 1:05:20
488 227/247 1:05:21 13:05 LEXI RYMERS 12 F NORTHWOOD 1:05:21
489 228/247 1:05:32 13:07 MATTY ROLLO 11 F PEMBERVILLE 1:05:32
490 229/247 1:06:45 13:21 JENNIFER KELLOGG 28 F PEMBERVILLE 1:06:45
491 230/247 1:06:48 13:22 KRISTAL KING 29 F PEMBERVILLE 1:06:48
492 231/247 1:06:59 13:24 RACHEL STEINBRUNNER 33 F MILLBURY 1:06:59
493 232/247 1:06:59 13:24 SILVIA COLUMBER 27 F BRADNER 1:06:59
494 233/247 1:08:11 13:39 DEBORAH PLAKO 55 F BROOKLIN HTS 1:08:11
495 234/247 1:08:34 13:43 LARISSA BARMAN 12 F PEMBERVILLE 1:08:34
496 235/247 1:08:55 13:47 MADDI VAUGHN 13 F PEMBERVILLE 1:08:55
497 236/247 1:09:26 13:54 DONNA HUFFMAN 56 F PEMBERVILLE 1:09:26
498 237/247 1:09:32 13:55 TRACY EGERT 28 F BOWLING GREEN 1:09:32
499 238/247 1:09:32 13:55 KARLA LEADY 47 F PEMBERVILLE 1:09:32
500 239/247 1:09:34 13:55 GILLIAN ALLEN 12 F ELMORE 1:09:34
501 262/264 1:09:54 13:59 DON ZEEK 67 M PEMBERVILLE 1:09:54
502 240/247 1:09:58 14:00 LYNDSEY LEADY 24 F LUCKEY 1:09:58
503 241/247 1:09:59 14:00 TREYA NIDIFFER 32 F PEMBERVILLE 1:09:59
504 242/247 1:09:59 14:00 TRACY SNIDER 20 F WILLISTON 1:09:59
505 243/247 1:11:07 14:14 MEGAN ROLF 12 F PERRYSBURG 1:11:07
506 244/247 1:11:16 14:16 PAYGE HARMON 11 F PEMBERVILLE 1:11:16
507 245/247 1:11:16 14:16 JAIMEE HISER 12 F BOWLING GREEN 1:11:16
508 263/264 1:13:03 14:37 TIM FOGLE 58 M BOWLING GREEN 1:13:03
509 246/247 1:14:17 14:52 MARY DENNIS 50 F BOWLING GREE 1:14:17
510 247/247 1:15:33 15:07 TINA PRESSLEY 37 F GENOA 1:15:33
511 264/264 1:16:27 15:18 WILLIAM CARL 78 M PEMBERVILLE 1:16:27

 

 

 

Join us for our premier races

 

 

 

 

GlassCityMarathon

 

 churchill halfmarathon logo

  Midnight Special Logo

 

Free business joomla templates

Distributed by SiteGround